Poncha Springs, CO (81242)

5:39 PM MDT on August 28, 2015 (GMT -0600)
Elk Trail | | Change Station
CLOSE
Current Station
Personal Weather Station
Location: Salida, CO
Elevation: 8130 ft
Nearby Weather Stations

Elev 8130 ft 38.55 °N, 106.12 °W | Updated 1 minute ago

Scattered Clouds
Scattered Clouds
70.0 °F
Feels Like 70.0 °F
N
7.0
Wind Variable Wind from WSW
Gusts 12.0 mph

Today
High -- | Low -- °F
--% Chance of Precip.
Yesterday
High -- | Low -- °F
Precip. -- in
6:29 AM 7:40 PM
Waxing Gibbous, 99% visible
Pressure 30.39 in
Visibility 10.0 miles
Clouds Scattered Clouds 11000 ft
Dew Point 35 °F
Humidity 28%
Rainfall 0.00 in
Snow Depth Not available.
UV 2 out of 12
Pollen 9.90 out of 12
Air Quality Not available.
Flu Activity Not available.
METAR KANK 282335Z AUTO 25010KT 10SM SCT110 25/00 A3039 RMK AO1 T02500003
Pressure 30.39 in
Visibility 10.0 miles
Clouds Scattered Clouds 11000 ft
Dew Point 35 °F
Humidity 28%
Rainfall 0.00 in
Snow Depth Not available.
UV 2 out of 12
Pollen 9.90 out of 12
Air Quality Not available.
Flu Activity Not available.
METAR KANK 282335Z AUTO 25010KT 10SM SCT110 25/00 A3039 RMK AO1 T02500003

10-Day Weather Forecast

×

Almanac

Astronomy

Aug. 28, 2015 Rise Set
Actual Time
Civil Twilight
Nautical Twilight
Astronomical Twilight
Moon
Length of Visible Light
Length of Day
Tomorrow will be .
, % of the Moon is Illuminated

Today's Extremes

State Highs State Lows

Community

WunderPhotos

Upload Photos

1,850,532 photos uploaded!

WunderBlogs® & News

Nearby

Air Quality

  Air Quality AQ Index Pollutant
Not available.

Snow Depth

Station Depth Elevation

Earthquake Activity

City Distance Mag. Time & Date
Minimum magnitude displayed is 2.5.

Coastal Water Temperatures

Place Temperature

Stations

Nearby Weather Stations

Station Location Temp. Windchill Dew Point Humidity Wind Precip. Elev Updated Type